Time;durP1;ratioP1;P1;durP2;ratioP2;P2;SDS_P1;SDS_P2;PMS_P1;PMS_P2;Temp;Humidity;BMP_temperature;BMP_pressure;BME280_temperature;BME280_humidity;BME280_pressure;Samples;Min_cycle;Max_cycle;Signal;HPM_P1;HPM_P2
2023/04/01 00:01:23;;;;;;;11.82;5.30;;;;;;;18.24;51.02;99113.81;5048923;28;20348;-43
2023/04/01 00:03:50;;;;;;;9.57;4.80;;;;;;;18.22;50.90;99113.22;5052080;28;20057;-43
2023/04/01 00:06:18;;;;;;;11.27;5.28;;;;;;;18.22;51.02;99117.75;5051495;28;20075;-43
2023/04/01 00:08:46;;;;;;;9.05;5.15;;;;;;;18.21;51.25;99124.13;5050910;28;20051;-43
2023/04/01 00:11:13;;;;;;;10.98;5.03;;;;;;;18.20;51.17;99117.94;5055058;28;20053;-43
2023/04/01 00:13:40;;;;;;;9.98;5.07;;;;;;;18.19;50.86;99126.19;5052216;28;20059;-43
2023/04/01 00:16:07;;;;;;;9.13;4.53;;;;;;;18.18;50.80;99125.34;5053063;28;20053;-45
2023/04/01 00:18:47;;;;;;;8.32;4.43;;;;;;;18.18;51.14;99129.91;5054182;28;20049;-43
2023/04/01 00:21:14;;;;;;;10.30;5.22;;;;;;;18.17;51.26;99131.75;5054762;28;20080;-43
2023/04/01 00:23:41;;;;;;;9.30;4.32;;;;;;;18.18;51.03;99132.56;5054664;28;20433;-44
2023/04/01 00:26:08;;;;;;;9.63;4.63;;;;;;;18.15;51.07;99136.47;5053086;28;20052;-43
2023/04/01 00:28:35;;;;;;;9.45;5.18;;;;;;;18.15;51.17;99133.78;5054281;28;20056;-42
2023/04/01 00:31:07;;;;;;;8.25;4.43;;;;;;;18.15;51.03;99131.09;5053429;28;20132;-43
2023/04/01 00:33:34;;;;;;;8.88;4.57;;;;;;;18.14;50.97;99128.63;5055160;28;20848;-42
2023/04/01 00:36:14;;;;;;;9.45;4.72;;;;;;;18.12;50.93;99139.53;5056174;28;20041;-43
2023/04/01 00:38:42;;;;;;;9.27;4.70;;;;;;;18.13;51.21;99138.53;5055144;28;20045;-43
2023/04/01 00:41:15;;;;;;;9.10;4.65;;;;;;;18.11;51.17;99140.56;5053843;28;20048;-43
2023/04/01 00:43:43;;;;;;;9.20;4.28;;;;;;;18.09;51.02;99145.31;5055251;28;20045;-43
2023/04/01 00:46:11;;;;;;;9.63;4.75;;;;;;;18.10;51.44;99143.44;5051710;28;20343;-43
2023/04/01 00:48:55;;;;;;;10.30;4.88;;;;;;;18.07;51.17;99144.66;5054158;28;20048;-42
2023/04/01 00:51:25;;;;;;;10.48;4.80;;;;;;;18.06;51.45;99143.00;5053658;28;20136;-43
2023/04/01 00:53:54;;;;;;;11.75;5.05;;;;;;;18.06;51.32;99148.38;5052586;28;20494;-43
2023/04/01 00:56:55;;;;;;;8.98;4.65;;;;;;;18.03;51.62;99150.59;5053153;28;20144;-43
2023/04/01 00:59:29;;;;;;;10.57;4.32;;;;;;;18.04;51.73;99147.72;5053435;28;20080;-43
2023/04/01 01:01:56;;;;;;;7.57;4.38;;;;;;;18.04;51.62;99150.41;5055135;28;20337;-43
2023/04/01 01:04:25;;;;;;;9.40;4.55;;;;;;;18.02;51.53;99144.44;5054467;28;20051;-43
2023/04/01 01:07:02;;;;;;;10.02;5.05;;;;;;;18.02;51.66;99151.63;5054551;28;20055;-43
2023/04/01 01:09:51;;;;;;;7.82;4.45;;;;;;;17.99;51.70;99150.16;5049274;28;20144;-42
2023/04/01 01:12:34;;;;;;;8.88;4.50;;;;;;;17.99;51.47;99144.81;5052479;28;20060;-43
2023/04/01 01:15:36;;;;;;;9.85;4.45;;;;;;;17.98;51.39;99153.88;5049873;28;20064;-43
2023/04/01 01:18:27;;;;;;;7.90;4.30;;;;;;;17.98;51.40;99156.56;5041364;28;20144;-43
2023/04/01 01:21:20;;;;;;;8.60;4.45;;;;;;;17.96;51.81;99155.91;5047714;28;20448;-43
2023/04/01 01:24:05;;;;;;;8.38;4.57;;;;;;;17.96;51.50;99158.59;5046682;28;20045;-43
2023/04/01 01:26:44;;;;;;;9.88;4.47;;;;;;;17.94;51.76;99158.78;5051635;28;20052;-43
2023/04/01 01:29:14;;;;;;;9.48;4.28;;;;;;;17.94;51.79;99156.13;5052394;28;20464;-42
2023/04/01 01:31:43;;;;;;;6.55;3.88;;;;;;;17.94;51.54;99160.66;5050669;28;20055;-43
2023/04/01 01:34:34;;;;;;;8.45;4.57;;;;;;;17.92;51.89;99158.16;5051321;28;20061;-43
2023/04/01 01:37:06;;;;;;;8.15;4.18;;;;;;;17.94;51.70;99155.28;5050057;28;20052;-43
2023/04/01 01:39:35;;;;;;;7.82;3.95;;;;;;;17.92;51.65;99163.50;5049251;28;20060;-43
2023/04/01 01:42:06;;;;;;;6.70;3.45;;;;;;;17.90;51.51;99160.22;5051128;28;20045;-43
2023/04/01 01:44:35;;;;;;;8.23;3.95;;;;;;;17.90;51.77;99165.56;5051425;28;20124;-43
2023/04/01 01:47:02;;;;;;;7.10;4.05;;;;;;;17.90;51.43;99172.78;5052128;28;20128;-43
2023/04/01 01:49:32;;;;;;;7.35;4.05;;;;;;;17.88;51.65;99162.25;5053157;28;20244;-43
2023/04/01 01:51:58;;;;;;;8.48;4.00;;;;;;;17.88;51.65;99166.78;5053259;28;20318;-43
2023/04/01 01:54:25;;;;;;;7.60;3.97;;;;;;;17.86;51.82;99168.84;5050624;28;20049;-43
2023/04/01 01:56:59;;;;;;;6.45;3.67;;;;;;;17.86;51.89;99168.84;5050768;28;20045;-42
2023/04/01 01:59:28;;;;;;;9.70;4.13;;;;;;;17.85;51.99;99170.69;5048501;28;20049;-43
2023/04/01 02:01:56;;;;;;;6.75;3.65;;;;;;;17.85;51.97;99177.88;5048615;28;20051;-42
2023/04/01 02:04:23;;;;;;;5.72;3.42;;;;;;;17.85;51.91;99177.88;5047468;28;20325;-43
2023/04/01 02:06:57;;;;;;;9.13;4.68;;;;;;;17.83;52.15;99178.06;5042083;28;20053;-43
2023/04/01 02:09:24;;;;;;;8.85;3.47;;;;;;;17.84;51.71;99186.94;5050046;28;20128;-43
2023/04/01 02:11:54;;;;;;;8.50;3.95;;;;;;;17.83;52.10;99187.97;5045752;28;20044;-43
2023/04/01 02:14:25;;;;;;;7.45;3.83;;;;;;;17.82;52.25;99191.69;5045203;28;20044;-42
2023/04/01 02:16:57;;;;;;;8.35;3.92;;;;;;;17.82;52.28;99191.69;5049232;28;20049;-42
2023/04/01 02:19:30;;;;;;;6.13;3.65;;;;;;;17.81;52.07;99190.00;5051224;28;20099;-43
2023/04/01 02:22:02;;;;;;;6.65;3.70;;;;;;;17.81;52.30;99195.34;5049570;28;20134;-43
2023/04/01 02:24:32;;;;;;;6.63;3.70;;;;;;;17.80;52.34;99199.91;5044715;28;20048;-43
2023/04/01 02:26:59;;;;;;;6.05;3.15;;;;;;;17.80;52.11;99207.09;5049691;28;20336;-42
2023/04/01 02:29:26;;;;;;;5.35;3.13;;;;;;;17.79;51.90;99200.91;5048704;28;20049;-43
2023/04/01 02:31:54;;;;;;;6.32;3.38;;;;;;;17.78;52.43;99199.28;5049355;28;20052;-43
2023/04/01 02:34:23;;;;;;;5.60;3.05;;;;;;;17.78;52.03;99209.16;5047875;28;20135;-43
2023/04/01 02:36:51;;;;;;;6.07;3.33;;;;;;;17.76;52.22;99207.50;5048485;28;20048;-42
2023/04/01 02:39:18;;;;;;;7.40;3.17;;;;;;;17.78;52.06;99211.84;5041296;28;20056;-42
2023/04/01 02:41:45;;;;;;;5.57;3.08;;;;;;;17.76;52.30;99212.03;5049100;28;20601;-43
2023/04/01 02:44:14;;;;;;;6.40;3.30;;;;;;;17.76;52.17;99214.69;5046838;28;20057;-43
2023/04/01 02:46:41;;;;;;;6.63;3.75;;;;;;;17.74;52.27;99212.22;5046878;28;20083;-44
2023/04/01 02:49:08;;;;;;;5.85;3.28;;;;;;;17.75;52.00;99218.41;5049081;28;20076;-43
2023/04/01 02:51:34;;;;;;;6.88;3.53;;;;;;;17.75;52.43;99218.41;5048984;28;20437;-43
2023/04/01 02:54:01;;;;;;;6.60;3.13;;;;;;;17.74;52.30;99225.63;5046820;28;20049;-43
2023/04/01 02:56:28;;;;;;;5.38;3.22;;;;;;;17.74;52.44;99230.97;5043725;28;20055;-43
2023/04/01 02:58:55;;;;;;;7.22;3.05;;;;;;;17.73;52.30;99231.97;5047668;28;20352;-43
2023/04/01 03:01:22;;;;;;;5.45;2.47;;;;;;;17.74;52.28;99236.34;5046206;28;20413;-43
2023/04/01 03:03:49;;;;;;;7.55;3.30;;;;;;;17.72;52.78;99235.66;5047059;28;20041;-43
2023/04/01 03:06:17;;;;;;;4.22;2.53;;;;;;;17.72;52.51;99241.00;5048475;28;20049;-44
2023/04/01 03:08:44;;;;;;;6.10;3.17;;;;;;;17.74;52.11;99244.38;5047605;28;20080;-43
2023/04/01 03:11:11;;;;;;;5.50;2.72;;;;;;;17.73;52.44;99248.06;5049229;28;20399;-42
2023/04/01 03:13:38;;;;;;;5.65;3.00;;;;;;;17.73;52.45;99242.69;5050469;28;20338;-43
2023/04/01 03:16:05;;;;;;;6.03;2.97;;;;;;;17.73;52.55;99256.09;5043810;28;20136;-43
2023/04/01 03:18:32;;;;;;;7.60;3.78;;;;;;;17.72;52.20;99253.59;5049231;28;20071;-42
2023/04/01 03:21:22;;;;;;;4.75;3.08;;;;;;;17.71;52.38;99260.81;5051633;28;20440;-42
2023/04/01 03:23:49;;;;;;;4.88;3.00;;;;;;;17.72;52.51;99267.81;5049781;28;20057;-43
2023/04/01 03:26:16;;;;;;;5.05;2.80;;;;;;;17.73;52.36;99263.31;5050306;28;20045;-43
2023/04/01 03:28:43;;;;;;;3.67;2.33;;;;;;;17.73;52.19;99279.38;5048235;28;20055;-43
2023/04/01 03:31:10;;;;;;;4.38;2.70;;;;;;;17.72;52.35;99275.84;5049903;28;20045;-43
2023/04/01 03:33:37;;;;;;;5.30;2.65;;;;;;;17.72;52.28;99283.88;5050532;28;20060;-42
2023/04/01 03:36:06;;;;;;;4.78;2.20;;;;;;;17.72;52.15;99281.22;5049219;28;20045;-43
2023/04/01 03:38:36;;;;;;;3.80;2.38;;;;;;;17.71;52.06;99290.28;5048357;28;20387;-43
2023/04/01 03:41:03;;;;;;;4.85;2.67;;;;;;;17.72;52.53;99294.59;5052133;28;20048;-43
2023/04/01 03:43:29;;;;;;;4.00;2.50;;;;;;;17.72;51.76;99297.28;5047016;28;20060;-43
2023/04/01 03:45:57;;;;;;;4.65;2.33;;;;;;;17.72;52.43;99296.47;5043534;28;20056;-43
2023/04/01 03:48:25;;;;;;;4.07;2.75;;;;;;;17.71;52.04;99301.00;5044376;28;20057;-43
2023/04/01 03:50:52;;;;;;;5.32;2.65;;;;;;;17.71;52.30;99311.72;5048510;28;20053;-42
2023/04/01 03:53:18;;;;;;;4.00;2.47;;;;;;;17.72;52.34;99305.31;5048355;28;20337;-43
2023/04/01 03:55:45;;;;;;;4.07;2.30;;;;;;;17.71;52.38;99317.06;5045377;28;20048;-43
2023/04/01 03:58:11;;;;;;;5.93;2.65;;;;;;;17.71;52.77;99322.44;5047095;28;20045;-43
2023/04/01 04:00:38;;;;;;;3.05;2.20;;;;;;;17.72;52.58;99324.09;5041830;28;20049;-43
2023/04/01 04:03:06;;;;;;;5.18;2.65;;;;;;;17.72;52.29;99328.63;5043361;28;20153;-43
2023/04/01 04:05:33;;;;;;;6.95;2.90;;;;;;;17.71;52.40;99325.09;5043971;28;20103;-43
2023/04/01 04:08:00;;;;;;;4.60;2.67;;;;;;;17.72;52.42;99333.97;5046814;28;20094;-43
2023/04/01 04:10:28;;;;;;;4.22;2.40;;;;;;;17.71;52.67;99333.16;5044685;28;20053;-43
2023/04/01 04:12:55;;;;;;;4.60;2.35;;;;;;;17.70;52.41;99339.53;5046187;28;20348;-43
2023/04/01 04:15:23;;;;;;;4.60;2.35;;;;;;;17.71;52.62;99343.88;5042207;28;20827;-43
2023/04/01 04:17:50;;;;;;;3.80;2.30;;;;;;;17.70;52.84;99355.59;5041769;28;20084;-42
2023/04/01 04:20:16;;;;;;;5.30;2.45;;;;;;;17.71;52.76;99356.44;5046821;28;20057;-43
2023/04/01 04:22:43;;;;;;;6.38;2.40;;;;;;;17.69;52.62;99359.31;5048420;28;20348;-43
2023/04/01 04:25:09;;;;;;;3.30;1.98;;;;;;;17.70;52.79;99355.59;5047921;28;20064;-43
2023/04/01 04:27:36;;;;;;;4.13;2.08;;;;;;;17.70;52.61;99377.03;5046971;28;20044;-43
2023/04/01 04:30:05;;;;;;;3.58;2.20;;;;;;;17.71;52.68;99372.50;5042135;28;20051;-44
2023/04/01 04:32:31;;;;;;;4.50;2.47;;;;;;;17.71;52.53;99372.50;5041272;28;20053;-43
2023/04/01 04:34:58;;;;;;;4.43;2.63;;;;;;;17.70;52.81;99378.91;5048916;28;20045;-42
2023/04/01 04:37:25;;;;;;;4.55;2.00;;;;;;;17.70;52.67;99387.75;5040436;28;20493;-43
2023/04/01 04:39:52;;;;;;;3.95;2.08;;;;;;;17.71;53.01;99391.28;5047296;28;20129;-43
2023/04/01 04:42:19;;;;;;;4.38;1.92;;;;;;;17.70;52.80;99390.44;5046761;28;20132;-43
2023/04/01 04:44:45;;;;;;;2.88;1.95;;;;;;;17.69;52.63;99396.81;5045313;28;20048;-43
2023/04/01 04:47:12;;;;;;;3.22;2.20;;;;;;;17.69;52.99;99393.31;5045683;28;20055;-43
2023/04/01 04:49:39;;;;;;;2.83;2.17;;;;;;;17.69;52.91;99407.56;5045035;28;20459;-44
2023/04/01 04:52:05;;;;;;;3.05;1.92;;;;;;;17.69;52.55;99412.91;5045102;28;20053;-43
2023/04/01 04:54:32;;;;;;;3.35;2.10;;;;;;;17.69;52.98;99415.59;5045685;28;20048;-43
2023/04/01 04:56:58;;;;;;;3.03;1.90;;;;;;;17.69;52.77;99420.13;5038234;28;20047;-43
2023/04/01 04:59:25;;;;;;;4.38;2.55;;;;;;;17.69;52.92;99426.31;5046484;28;20344;-43
2023/04/01 05:01:52;;;;;;;3.60;2.42;;;;;;;17.68;52.98;99421.94;5047269;28;20073;-43
2023/04/01 05:04:19;;;;;;;4.90;2.67;;;;;;;17.70;52.74;99429.81;5050384;28;20048;-44
2023/04/01 05:06:45;;;;;;;4.07;2.20;;;;;;;17.69;52.82;99430.84;5049421;28;20447;-43
2023/04/01 05:09:12;;;;;;;4.03;2.22;;;;;;;17.69;52.92;99431.66;5050211;28;20051;-43
2023/04/01 05:11:38;;;;;;;3.67;2.60;;;;;;;17.68;52.93;99440.69;5048994;28;20349;-44
2023/04/01 05:14:05;;;;;;;5.43;2.85;;;;;;;17.69;52.48;99446.91;5051849;28;20348;-43
2023/04/01 05:16:32;;;;;;;4.47;2.95;;;;;;;17.69;52.58;99453.09;5047698;28;20443;-43
2023/04/01 05:18:58;;;;;;;4.15;2.97;;;;;;;17.69;52.70;99463.00;5053617;28;20376;-43
2023/04/01 05:21:25;;;;;;;6.05;3.78;;;;;;;17.68;53.02;99464.81;5050795;28;20377;-43
2023/04/01 05:23:51;;;;;;;6.57;3.97;;;;;;;17.68;52.69;99464.81;5049988;28;20158;-43
2023/04/01 05:26:18;;;;;;;13.90;4.57;;;;;;;17.68;52.66;99472.84;5052573;28;20063;-43
2023/04/01 05:28:44;;;;;;;7.63;4.93;;;;;;;17.67;52.60;99471.19;5050709;28;20049;-43
2023/04/01 05:31:11;;;;;;;8.63;5.22;;;;;;;17.69;52.66;99476.38;5047927;28;20122;-43
2023/04/01 05:33:38;;;;;;;12.30;6.72;;;;;;;17.68;52.59;99480.06;5053594;28;20053;-43
2023/04/01 05:36:09;;;;;;;9.88;6.55;;;;;;;17.67;52.97;99486.44;5054399;28;20055;-43
2023/04/01 05:38:36;;;;;;;13.63;7.55;;;;;;;17.67;53.06;99489.13;5053003;28;20044;-43
2023/04/01 05:41:03;;;;;;;13.95;8.10;;;;;;;17.67;52.92;99494.47;5048782;28;20049;-43
2023/04/01 05:43:30;;;;;;;12.30;7.82;;;;;;;17.67;52.85;99499.84;5049731;28;20084;-43
2023/04/01 05:45:57;;;;;;;14.43;8.85;;;;;;;17.67;52.70;99500.66;5051608;28;20190;-43
2023/04/01 05:48:24;;;;;;;14.32;8.68;;;;;;;17.67;52.54;99502.53;5051680;28;20045;-43
2023/04/01 05:50:50;;;;;;;14.43;9.05;;;;;;;17.66;52.42;99507.06;5052318;28;20063;-43
2023/04/01 05:53:17;;;;;;;17.25;10.63;;;;;;;17.65;52.71;99505.41;5049823;28;20056;-43
2023/04/01 05:55:44;;;;;;;17.40;10.80;;;;;;;17.66;52.86;99501.69;5052114;28;20136;-44
2023/04/01 05:58:10;;;;;;;17.25;10.25;;;;;;;17.66;52.70;99507.06;5048576;28;20072;-44
2023/04/01 06:00:37;;;;;;;19.38;12.27;;;;;;;17.65;52.98;99513.44;5052157;28;20531;-43
2023/04/01 06:03:04;;;;;;;19.73;12.43;;;;;;;17.66;52.91;99522.31;5054163;28;20215;-43
2023/04/01 06:05:40;;;;;;;21.40;12.27;;;;;;;17.66;52.77;99523.13;5051109;28;20341;-43
2023/04/01 06:08:16;;;;;;;20.73;11.75;;;;;;;17.65;53.15;99516.13;5052635;28;20420;-43
2023/04/01 06:10:53;;;;;;;21.38;12.38;;;;;;;17.65;52.83;99520.66;5052390;28;20052;-43
2023/04/01 06:13:44;;;;;;;22.23;13.32;;;;;;;17.65;52.89;99524.16;5052260;28;20092;-43
2023/04/01 06:16:22;;;;;;;22.08;13.80;;;;;;;17.66;52.69;99535.69;5049203;28;20061;-43
2023/04/01 06:19:17;;;;;;;23.38;14.60;;;;;;;17.67;53.08;99537.34;5041916;28;20064;-47
2023/04/01 06:22:14;;;;;;;25.85;15.00;;;;;;;17.74;53.29;99546.34;5031773;28;20157;-48
2023/04/01 06:25:06;;;;;;;25.15;14.88;;;;;;;17.82;53.08;99550.81;5034809;28;20160;-57
2023/04/01 06:27:41;;;;;;;27.48;16.02;;;;;;;17.91;52.90;99557.75;5043619;28;20048;-50
2023/04/01 06:30:38;;;;;;;31.27;18.42;;;;;;;18.02;53.49;99564.50;5034881;28;20118;-44
2023/04/01 06:33:28;;;;;;;34.78;19.50;;;;;;;18.13;52.93;99567.56;5040028;28;20041;-44
2023/04/01 06:36:18;;;;;;;45.00;25.27;;;;;;;18.28;52.62;99570.22;5037309;28;20052;-45
2023/04/01 06:38:53;;;;;;;45.10;25.52;;;;;;;18.43;52.20;99579.09;5039438;28;20404;-43
2023/04/01 06:41:33;;;;;;;50.22;29.42;;;;;;;18.56;52.00;99578.41;5043870;28;20107;-45
2023/04/01 06:44:15;;;;;;;55.78;31.50;;;;;;;18.70;51.83;99584.81;5039684;28;20053;-45
2023/04/01 06:46:53;;;;;;;55.70;32.88;;;;;;;18.80;51.55;99579.97;5038571;28;20084;-46
2023/04/01 06:49:36;;;;;;;64.85;37.30;;;;;;;18.92;51.35;99591.03;5040448;28;20059;-46
2023/04/01 06:52:26;;;;;;;55.17;32.00;;;;;;;19.06;51.04;99600.09;5040243;28;20048;-45
2023/04/01 06:55:01;;;;;;;65.82;38.08;;;;;;;19.15;50.74;99597.06;5041442;28;20091;-45
2023/04/01 06:57:34;;;;;;;68.40;37.95;;;;;;;19.22;50.91;99602.50;5035073;28;20045;-45
2023/04/01 07:00:07;;;;;;;65.68;35.97;;;;;;;19.22;50.66;99605.19;5039070;28;20069;-47
2023/04/01 07:02:48;;;;;;;65.50;35.97;;;;;;;19.20;50.72;99607.22;5038464;28;20053;-48
2023/04/01 07:05:15;;;;;;;64.53;36.35;;;;;;;19.19;51.32;99614.47;5038130;28;20052;-49
2023/04/01 07:07:48;;;;;;;65.05;34.92;;;;;;;19.18;50.93;99625.41;5038585;28;20455;-53
2023/04/01 07:10:25;;;;;;;63.45;36.15;;;;;;;19.16;51.22;99619.38;5038554;28;20418;-53
2023/04/01 07:12:57;;;;;;;61.10;35.63;;;;;;;19.16;51.22;99627.44;5034646;28;20068;-48
2023/04/01 07:15:30;;;;;;;61.88;34.22;;;;;;;19.16;51.46;99638.19;5035131;28;20057;-52
2023/04/01 07:18:05;;;;;;;59.03;33.83;;;;;;;19.14;51.55;99637.56;5037358;28;20750;-51
2023/04/01 07:20:34;;;;;;;54.22;32.00;;;;;;;19.13;51.28;99639.38;5037329;28;20048;-50
2023/04/01 07:23:08;;;;;;;58.45;32.65;;;;;;;19.12;51.75;99644.97;5036585;28;20160;-50
2023/04/01 07:25:43;;;;;;;55.05;31.50;;;;;;;19.11;51.34;99646.81;5041835;28;20074;-50
2023/04/01 07:28:18;;;;;;;52.20;31.25;;;;;;;19.12;51.51;99653.84;5038740;28;20373;-47
2023/04/01 07:31:09;;;;;;;57.25;33.35;;;;;;;19.13;51.42;99657.34;5034174;28;20045;-50
2023/04/01 07:34:01;;;;;;;53.75;31.80;;;;;;;19.13;51.43;99660.88;5037830;28;20043;-47
2023/04/01 07:36:56;;;;;;;53.55;30.83;;;;;;;19.14;51.78;99662.56;5036632;28;20061;-43
2023/04/01 07:39:54;;;;;;;53.25;29.17;;;;;;;19.13;51.66;99677.00;5016845;28;20071;-49
2023/04/01 07:42:44;;;;;;;49.38;28.90;;;;;;;19.14;51.85;99681.34;5036470;28;20358;-43
2023/04/01 07:45:36;;;;;;;48.25;28.08;;;;;;;19.13;52.02;99684.22;5036725;28;20057;-45
2023/04/01 07:48:23;;;;;;;50.75;28.35;;;;;;;19.13;51.79;99682.34;5033002;28;20048;-44
2023/04/01 07:50:50;;;;;;;47.03;27.73;;;;;;;19.15;51.61;99685.69;5036165;28;20579;-45
2023/04/01 07:53:21;;;;;;;45.70;25.15;;;;;;;19.16;51.84;99687.34;5040473;28;20490;-42
2023/04/01 07:56:06;;;;;;;47.72;26.80;;;;;;;19.18;51.29;99695.25;5036601;28;20451;-43
2023/04/01 07:58:54;;;;;;;42.70;24.30;;;;;;;19.19;51.40;99695.03;5039649;28;20045;-44
2023/04/01 08:01:44;;;;;;;42.05;24.88;;;;;;;19.19;51.22;99703.09;5033710;28;20504;-43
2023/04/01 08:04:28;;;;;;;40.72;23.45;;;;;;;19.19;51.12;99710.34;5037103;28;20387;-43
2023/04/01 08:07:23;;;;;;;42.17;23.75;;;;;;;19.19;51.49;99707.66;5035304;28;20049;-44
2023/04/01 08:09:59;;;;;;;42.25;24.98;;;;;;;19.20;51.56;99714.69;5038041;28;20048;-45
2023/04/01 08:12:58;;;;;;;42.22;24.52;;;;;;;19.16;51.40;99724.13;5036429;28;20106;-44
2023/04/01 08:15:32;;;;;;;42.60;25.10;;;;;;;19.18;51.06;99724.78;4999792;28;20056;-43
2023/04/01 08:18:08;;;;;;;41.38;24.35;;;;;;;19.18;52.04;99731.00;5035454;28;20428;-44
2023/04/01 08:20:45;;;;;;;45.08;26.15;;;;;;;19.21;51.48;99735.13;5039813;28;20084;-43
2023/04/01 08:23:35;;;;;;;44.97;25.20;;;;;;;19.23;51.85;99738.50;5039074;28;20334;-44
2023/04/01 08:26:10;;;;;;;44.92;25.67;;;;;;;19.29;51.97;99735.03;5037560;28;20045;-46
2023/04/01 08:28:46;;;;;;;48.85;28.48;;;;;;;19.40;51.51;99742.59;5038071;28;20131;-44
2023/04/01 08:31:19;;;;;;;46.28;28.10;;;;;;;19.51;51.25;99735.91;5037526;28;20424;-47
2023/04/01 08:33:47;;;;;;;;;;;;;;;19.60;51.10;99758.13;5037732;28;20048;-45
2023/04/01 08:36:24;;;;;;;48.65;28.92;;;;;;;19.71;50.16;99758.50;5037372;28;19925;-46
2023/04/01 08:38:57;;;;;;;51.17;29.70;;;;;;;19.77;50.72;99756.88;5043484;28;20051;-42
2023/04/01 08:41:57;;;;;;;53.53;30.17;;;;;;;19.82;50.40;99757.16;5040751;28;20451;-44
2023/04/01 08:45:00;;;;;;;52.72;29.17;;;;;;;19.88;50.30;99766.31;5033112;28;20046;-44
2023/04/01 08:47:52;;;;;;;53.13;31.33;;;;;;;19.93;50.27;99764.69;5039332;28;20048;-43
2023/04/01 08:50:34;;;;;;;52.63;29.73;;;;;;;19.98;49.76;99777.59;5021593;28;20116;-44
2023/04/01 08:53:14;;;;;;;46.45;27.05;;;;;;;20.01;50.21;99779.03;5042935;28;20135;-43
2023/04/01 08:56:17;;;;;;;51.63;28.17;;;;;;;20.02;50.16;99784.25;5040072;28;20387;-43
2023/04/01 08:59:02;;;;;;;42.60;25.60;;;;;;;20.05;49.96;99780.31;5041671;28;20136;-44
2023/04/01 09:01:50;;;;;;;45.70;26.90;;;;;;;20.07;50.06;99784.50;5039360;28;20118;-42
2023/04/01 09:04:39;;;;;;;46.17;27.05;;;;;;;20.11;50.23;99791.16;5043218;28;20100;-44
2023/04/01 09:07:33;;;;;;;45.17;25.60;;;;;;;20.12;50.05;99792.81;5036292;28;20045;-43
2023/04/01 09:10:30;;;;;;;44.30;25.85;;;;;;;20.14;49.42;99789.91;5042116;28;20057;-43
2023/04/01 09:13:31;;;;;;;43.35;25.50;;;;;;;20.15;49.43;99794.28;5039965;28;20048;-44
2023/04/01 09:16:00;;;;;;;41.92;24.95;;;;;;;20.18;49.68;99805.50;5033516;28;20056;-43
2023/04/01 09:18:36;;;;;;;42.45;25.15;;;;;;;20.19;49.47;99807.16;5039491;28;20152;-43
2023/04/01 09:21:23;;;;;;;45.30;25.75;;;;;;;20.20;49.52;99814.19;5041690;28;20055;-42
2023/04/01 09:23:58;;;;;;;39.40;23.27;;;;;;;20.24;49.50;99813.81;5040665;28;20592;-43
2023/04/01 09:26:34;;;;;;;36.88;21.63;;;;;;;20.25;49.42;99807.41;5040368;28;20140;-43
2023/04/01 09:29:31;;;;;;;37.10;20.60;;;;;;;20.19;49.02;99812.53;5039417;28;20096;-43
2023/04/01 09:32:35;;;;;;;44.33;22.35;;;;;;;20.13;49.94;99818.69;5038762;28;20417;-43
2023/04/01 09:35:21;;;;;;;41.20;23.83;;;;;;;20.08;49.44;99817.59;5040179;28;20099;-42
2023/04/01 09:38:23;;;;;;;50.08;26.85;;;;;;;20.01;49.98;99822.91;5039195;28;20083;-42
2023/04/01 09:40:57;;;;;;;41.60;24.35;;;;;;;19.99;49.43;99827.66;4996096;28;20064;-42
2023/04/01 09:43:23;;;;;;;45.20;25.65;;;;;;;19.96;49.73;99833.41;5033587;28;20089;-42
2023/04/01 09:46:32;;;;;;;50.53;27.55;;;;;;;19.89;50.29;99836.03;5042601;28;20457;-43
2023/04/01 09:49:33;;;;;;;46.53;25.92;;;;;;;19.87;49.71;99839.94;5040800;28;20048;-42
2023/04/01 09:52:02;;;;;;;46.10;25.75;;;;;;;19.87;50.09;99843.47;5037398;28;20052;-41
2023/04/01 09:54:41;;;;;;;45.90;25.77;;;;;;;19.89;49.79;99838.72;5037569;28;20144;-40
2023/04/01 09:57:45;;;;;;;45.55;25.15;;;;;;;19.91;49.63;99842.06;5042480;28;20225;-40
2023/04/01 10:00:45;;;;;;;44.47;24.08;;;;;;;19.96;49.53;99842.31;5032782;28;20640;-40
2023/04/01 10:03:49;;;;;;;41.47;23.73;;;;;;;19.99;49.35;99849.19;5039429;28;20103;-40
2023/04/01 10:07:00;;;;;;;39.60;23.58;;;;;;;20.02;49.55;99853.31;5032356;28;20049;-40
2023/04/01 10:09:53;;;;;;;41.90;24.63;;;;;;;20.05;49.74;99859.16;5033914;28;20049;-40
2023/04/01 10:12:38;;;;;;;42.33;23.95;;;;;;;20.06;49.53;99860.84;5035374;28;20151;-41
2023/04/01 10:15:13;;;;;;;36.78;22.77;;;;;;;20.08;49.39;99864.16;5033387;28;20416;-41
2023/04/01 10:17:59;;;;;;;39.17;23.10;;;;;;;20.07;49.35;99862.50;5039969;28;20047;-40
2023/04/01 10:20:52;;;;;;;39.90;22.65;;;;;;;20.09;49.86;99865.81;5034589;28;20563;-40
2023/04/01 10:23:40;;;;;;;40.80;23.98;;;;;;;20.10;49.79;99867.50;5017252;28;20045;-40
2023/04/01 10:26:34;;;;;;;36.08;21.70;;;;;;;20.11;49.20;99866.47;5033584;28;20061;-39
2023/04/01 10:29:21;;;;;;;39.38;22.13;;;;;;;20.12;50.05;99870.81;5031571;28;20101;-39
2023/04/01 10:32:32;;;;;;;39.08;21.88;;;;;;;20.11;49.33;99869.16;5031836;28;20056;-39
2023/04/01 10:35:07;;;;;;;36.08;20.58;;;;;;;20.13;49.85;99877.88;5031592;28;20077;-39
2023/04/01 10:37:46;;;;;;;34.75;21.17;;;;;;;20.12;49.86;99878.91;5034058;28;20049;-39
2023/04/01 10:40:34;;;;;;;35.88;21.55;;;;;;;20.10;50.04;99878.28;5027227;28;20329;-40
2023/04/01 10:43:24;;;;;;;34.42;20.15;;;;;;;20.09;50.21;99887.34;5034504;28;20495;-39
2023/04/01 10:46:18;;;;;;;32.92;19.70;;;;;;;20.07;49.98;99893.94;5035612;28;20071;-40
2023/04/01 10:49:09;;;;;;;35.13;20.63;;;;;;;20.05;49.78;99893.28;5033273;28;20049;-41
2023/04/01 10:51:54;;;;;;;37.78;20.45;;;;;;;20.04;50.12;99894.31;5035535;28;20049;-39
2023/04/01 10:54:45;;;;;;;33.10;19.63;;;;;;;20.00;50.39;99909.19;5037402;28;20056;-39
2023/04/01 10:57:45;;;;;;;32.38;19.25;;;;;;;19.99;50.30;99902.97;5029927;28;20445;-39
2023/04/01 11:00:49;;;;;;;34.72;20.63;;;;;;;20.00;50.25;99904.63;5029802;28;20049;-40
2023/04/01 11:03:40;;;;;;;38.33;22.27;;;;;;;20.01;50.09;99910.84;5031320;28;20141;-39
2023/04/01 11:06:12;;;;;;;37.78;22.75;;;;;;;20.03;49.92;99909.63;5036111;28;20086;-39
2023/04/01 11:08:39;;;;;;;40.92;25.10;;;;;;;20.05;50.09;99906.75;5032850;28;20566;-39
2023/04/01 11:11:36;;;;;;;41.85;25.77;;;;;;;20.06;50.49;99913.78;5035085;28;20056;-39
2023/04/01 11:14:40;;;;;;;50.65;30.00;;;;;;;20.08;49.35;99917.13;5031149;28;20057;-40
2023/04/01 11:17:22;;;;;;;53.67;31.83;;;;;;;20.10;49.52;99905.16;5034008;28;20143;-40
2023/04/01 11:20:08;;;;;;;52.40;31.65;;;;;;;20.11;49.88;99914.91;5035982;28;20917;-40
2023/04/01 11:22:54;;;;;;;57.58;33.97;;;;;;;20.12;49.63;99921.94;5039950;28;20049;-39
2023/04/01 11:25:58;;;;;;;62.08;37.25;;;;;;;20.14;50.23;99919.91;5036477;28;20419;-40
2023/04/01 11:28:42;;;;;;;64.50;38.60;;;;;;;20.17;50.40;99924.88;5040881;28;20037;-40
2023/04/01 11:31:31;;;;;;;65.93;39.63;;;;;;;20.21;49.63;99920.78;5034133;28;20309;-40
2023/04/01 11:34:24;;;;;;;69.85;40.50;;;;;;;20.21;49.59;99926.16;5036228;28;20187;-40
2023/04/01 11:37:20;;;;;;;69.13;41.83;;;;;;;20.24;49.56;99937.59;5037332;28;20044;-39
2023/04/01 11:40:11;;;;;;;67.15;40.38;;;;;;;20.26;49.61;99940.91;5027804;28;20052;-41
2023/04/01 11:42:57;;;;;;;63.50;36.60;;;;;;;20.29;49.48;99941.38;5033066;28;20076;-40
2023/04/01 11:45:38;;;;;;;61.03;36.90;;;;;;;20.32;50.01;99941.00;5030510;28;20056;-41
2023/04/01 11:48:05;;;;;;;63.53;37.25;;;;;;;20.35;49.23;99942.47;5032296;28;20427;-41
2023/04/01 11:50:40;;;;;;;58.88;35.00;;;;;;;20.35;49.93;99956.78;5034724;28;20079;-41
2023/04/01 11:53:32;;;;;;;59.65;35.70;;;;;;;20.36;49.38;99957.59;5034344;28;20080;-40
2023/04/01 11:56:13;;;;;;;62.25;35.90;;;;;;;20.37;49.85;99970.03;5031264;28;20384;-41
2023/04/01 11:59:15;;;;;;;59.75;35.35;;;;;;;20.37;49.42;99972.72;5035281;28;20738;-40
2023/04/01 12:02:07;;;;;;;59.60;35.08;;;;;;;20.36;50.08;99982.66;5034162;28;20436;-41
2023/04/01 12:05:11;;;;;;;58.40;34.60;;;;;;;20.38;49.75;99983.31;5034795;28;20056;-41
2023/04/01 12:08:21;;;;;;;60.97;34.83;;;;;;;20.38;50.31;99987.84;5039636;28;20366;-42
2023/04/01 12:11:01;;;;;;;55.67;32.60;;;;;;;20.38;50.35;99991.38;5037970;28;20044;-41